Time,TemperatureF,DewpointF,PressureIn,WindDirection,WindDirectionDegrees,WindSpeedMPH,WindSpeedGustMPH,Humidity,HourlyPrecipIn,Conditions,Clouds,dailyrainin,SolarRadiationWatts/m^2,SoftwareType,DateUTC
2013-10-16 00:06:00,47.1,43.0,29.99,WSW,250,8.0,12.0,84,0.00,,,0.01,0,weatherlink.com 1.10,2013-10-16 05:06:00,
2013-10-16 00:21:00,46.9,43.0,29.98,West,271,10.0,15.0,86,0.00,,,0.01,0,weatherlink.com 1.10,2013-10-16 05:21:00,
2013-10-16 00:36:00,46.8,43.0,29.99,WSW,255,7.0,14.0,85,0.00,,,0.01,0,weatherlink.com 1.10,2013-10-16 05:36:00,
2013-10-16 00:51:00,46.8,43.0,29.99,WSW,255,7.0,13.0,85,0.00,,,0.01,0,weatherlink.com 1.10,2013-10-16 05:51:00,
2013-10-16 01:06:00,46.7,43.0,29.99,West,263,6.0,16.0,85,0.00,,,0.01,0,weatherlink.com 1.10,2013-10-16 06:06:00,
2013-10-16 01:21:00,46.6,42.0,30.00,WSW,253,12.0,16.0,84,0.00,,,0.01,0,weatherlink.com 1.10,2013-10-16 06:21:00,
2013-10-16 01:36:00,46.6,42.0,30.00,WSW,256,8.0,15.0,83,0.00,,,0.01,0,weatherlink.com 1.10,2013-10-16 06:36:00,
2013-10-16 01:51:00,46.5,42.0,29.99,West,263,8.0,15.0,84,0.00,,,0.01,0,weatherlink.com 1.10,2013-10-16 06:51:00,
2013-10-16 02:06:00,46.3,42.0,30.00,West,262,10.0,14.0,85,0.00,,,0.00,0,weatherlink.com 1.10,2013-10-16 07:06:00,
2013-10-16 02:22:00,46.3,42.0,30.00,WSW,257,11.0,15.0,85,0.00,,,0.00,0,weatherlink.com 1.10,2013-10-16 07:22:00,
2013-10-16 02:36:00,46.2,42.0,30.00,WNW,285,6.0,17.0,85,0.00,,,0.00,0,weatherlink.com 1.10,2013-10-16 07:36:00,
2013-10-16 02:51:00,46.1,42.0,30.00,WNW,294,7.0,15.0,84,0.00,,,0.00,0,weatherlink.com 1.10,2013-10-16 07:51:00,
2013-10-16 03:06:00,46.1,42.0,30.00,WSW,248,9.0,16.0,84,0.00,,,0.00,0,weatherlink.com 1.10,2013-10-16 08:06:00,
2013-10-16 03:21:00,46.1,42.0,30.00,West,277,10.0,15.0,84,0.00,,,0.00,0,weatherlink.com 1.10,2013-10-16 08:21:00,
2013-10-16 03:36:00,46.1,42.0,29.99,WSW,252,9.0,16.0,85,0.00,,,0.00,0,weatherlink.com 1.10,2013-10-16 08:36:00,
2013-10-16 03:51:00,46.0,42.0,30.00,WSW,254,10.0,12.0,85,0.00,,,0.00,0,weatherlink.com 1.10,2013-10-16 08:51:00,
2013-10-16 04:06:00,45.9,42.0,30.00,West,281,8.0,13.0,85,0.00,,,0.00,0,weatherlink.com 1.10,2013-10-16 09:06:00,
2013-10-16 04:21:00,45.9,42.0,30.00,West,262,9.0,12.0,86,0.00,,,0.00,0,weatherlink.com 1.10,2013-10-16 09:21:00,
2013-10-16 04:36:00,45.9,42.0,30.01,West,265,6.0,15.0,86,0.00,,,0.00,0,weatherlink.com 1.10,2013-10-16 09:36:00,
2013-10-16 04:51:00,45.8,42.0,30.01,West,261,9.0,13.0,86,0.00,,,0.00,0,weatherlink.com 1.10,2013-10-16 09:51:00,
2013-10-16 05:06:00,45.8,42.0,30.01,West,271,9.0,16.0,86,0.00,,,0.00,0,weatherlink.com 1.10,2013-10-16 10:06:00,
2013-10-16 05:21:00,45.7,42.0,30.00,WNW,292,5.0,14.0,87,0.00,,,0.00,0,weatherlink.com 1.10,2013-10-16 10:21:00,
2013-10-16 05:36:00,45.4,42.0,30.01,West,261,11.0,14.0,88,0.00,,,0.00,0,weatherlink.com 1.10,2013-10-16 10:36:00,
2013-10-16 05:51:00,45.1,42.0,30.01,West,261,11.0,15.0,90,0.00,,,0.00,0,weatherlink.com 1.10,2013-10-16 10:51:00,
2013-10-16 06:06:00,45.0,43.0,30.01,WSW,254,8.0,13.0,91,0.00,,,0.00,0,weatherlink.com 1.10,2013-10-16 11:06:00,
2013-10-16 06:21:00,44.8,42.0,30.01,WSW,246,7.0,14.0,91,0.00,,,0.00,0,weatherlink.com 1.10,2013-10-16 11:21:00,
2013-10-16 06:36:00,44.8,43.0,30.01,WNW,300,5.0,13.0,92,0.00,,,0.00,0,weatherlink.com 1.10,2013-10-16 11:36:00,
2013-10-16 06:51:00,44.9,43.0,30.01,WNW,292,5.0,15.0,92,0.00,,,0.00,0,weatherlink.com 1.10,2013-10-16 11:51:00,
2013-10-16 07:06:00,45.0,43.0,30.02,West,260,9.0,13.0,91,0.00,,,0.00,0,weatherlink.com 1.10,2013-10-16 12:06:00,
2013-10-16 07:21:00,45.0,43.0,30.01,WSW,242,8.0,13.0,91,0.00,,,0.00,0,weatherlink.com 1.10,2013-10-16 12:21:00,
2013-10-16 07:37:00,45.1,43.0,30.02,West,271,3.0,13.0,91,0.00,,,0.00,0,weatherlink.com 1.10,2013-10-16 12:37:00,
2013-10-16 07:52:00,45.2,43.0,30.02,West,269,4.0,14.0,91,0.00,,,0.00,5,weatherlink.com 1.10,2013-10-16 12:52:00,
2013-10-16 08:07:00,45.3,43.0,30.03,West,279,7.0,12.0,91,0.00,,,0.00,12,weatherlink.com 1.10,2013-10-16 13:07:00,
2013-10-16 08:22:00,45.5,43.0,30.03,West,265,10.0,12.0,90,0.00,,,0.00,28,weatherlink.com 1.10,2013-10-16 13:22:00,
2013-10-16 08:37:00,45.7,43.0,30.03,WSW,255,7.0,14.0,90,0.00,,,0.00,58,weatherlink.com 1.10,2013-10-16 13:37:00,
2013-10-16 08:52:00,46.0,43.0,30.03,West,273,3.0,10.0,89,0.00,,,0.00,65,weatherlink.com 1.10,2013-10-16 13:52:00,
2013-10-16 09:07:00,46.3,43.0,30.04,West,279,2.0,12.0,89,0.00,,,0.00,84,weatherlink.com 1.10,2013-10-16 14:07:00,
2013-10-16 09:22:00,46.2,43.0,30.04,WSW,250,8.0,16.0,88,0.00,,,0.00,33,weatherlink.com 1.10,2013-10-16 14:22:00,
2013-10-16 09:37:00,46.1,43.0,30.04,NW,307,4.0,12.0,88,0.00,,,0.00,77,weatherlink.com 1.10,2013-10-16 14:37:00,
2013-10-16 09:52:00,46.7,43.0,30.05,WNW,286,4.0,11.0,88,0.00,,,0.00,130,weatherlink.com 1.10,2013-10-16 14:52:00,
2013-10-16 10:07:00,46.9,43.0,30.05,WSW,257,9.0,15.0,86,0.00,,,0.00,98,weatherlink.com 1.10,2013-10-16 15:07:00,
2013-10-16 10:22:00,47.2,43.0,30.05,West,265,9.0,13.0,85,0.00,,,0.00,123,weatherlink.com 1.10,2013-10-16 15:22:00,
2013-10-16 10:37:00,47.4,43.0,30.06,West,260,3.0,8.0,85,0.00,,,0.00,53,weatherlink.com 1.10,2013-10-16 15:37:00,
2013-10-16 10:52:00,47.4,43.0,30.05,West,268,9.0,11.0,85,0.00,,,0.00,120,weatherlink.com 1.10,2013-10-16 15:52:00,
2013-10-16 11:07:00,47.6,43.0,30.06,WSW,246,9.0,13.0,85,0.00,,,0.00,116,weatherlink.com 1.10,2013-10-16 16:07:00,
2013-10-16 11:22:00,47.9,43.0,30.06,NW,313,5.0,9.0,83,0.00,,,0.00,190,weatherlink.com 1.10,2013-10-16 16:22:00,
2013-10-16 11:37:00,47.7,43.0,30.06,NW,321,3.0,13.0,82,0.00,,,0.00,116,weatherlink.com 1.10,2013-10-16 16:37:00,
2013-10-16 11:52:00,48.3,43.0,30.06,NW,304,4.0,9.0,83,0.00,,,0.00,288,weatherlink.com 1.10,2013-10-16 16:52:00,
2013-10-16 12:07:00,47.8,43.0,30.06,West,265,8.0,15.0,82,0.00,,,0.00,88,weatherlink.com 1.10,2013-10-16 17:07:00,
2013-10-16 12:22:00,48.3,43.0,30.06,NW,319,4.0,12.0,83,0.00,,,0.00,125,weatherlink.com 1.10,2013-10-16 17:22:00,
2013-10-16 12:37:00,48.3,43.0,30.06,West,266,6.0,14.0,82,0.00,,,0.00,399,weatherlink.com 1.10,2013-10-16 17:37:00,
2013-10-16 12:52:00,48.7,43.0,30.05,WSW,254,9.0,14.0,81,0.00,,,0.00,104,weatherlink.com 1.10,2013-10-16 17:52:00,
2013-10-16 13:07:00,47.8,43.0,30.05,WNW,294,5.0,14.0,82,0.00,,,0.00,142,weatherlink.com 1.10,2013-10-16 18:07:00,
2013-10-16 13:22:00,48.7,43.0,30.05,WNW,303,3.0,10.0,82,0.00,,,0.00,176,weatherlink.com 1.10,2013-10-16 18:22:00,
2013-10-16 13:37:00,48.7,42.0,30.04,WSW,250,9.0,13.0,79,0.00,,,0.00,121,weatherlink.com 1.10,2013-10-16 18:37:00,
2013-10-16 13:52:00,48.8,43.0,30.04,West,267,8.0,10.0,80,0.00,,,0.00,181,weatherlink.com 1.10,2013-10-16 18:52:00,
2013-10-16 14:07:00,49.1,43.0,30.04,WSW,245,7.0,10.0,80,0.00,,,0.00,70,weatherlink.com 1.10,2013-10-16 19:07:00,
2013-10-16 14:22:00,48.9,43.0,30.04,WNW,298,3.0,12.0,79,0.00,,,0.00,116,weatherlink.com 1.10,2013-10-16 19:22:00,
2013-10-16 14:37:00,49.2,43.0,30.04,West,263,3.0,11.0,79,0.00,,,0.00,114,weatherlink.com 1.10,2013-10-16 19:37:00,
2013-10-16 14:52:00,49.0,43.0,30.04,West,270,4.0,14.0,79,0.00,,,0.00,107,weatherlink.com 1.10,2013-10-16 19:52:00,
2013-10-16 15:07:00,49.2,43.0,30.04,WSW,250,8.0,10.0,78,0.00,,,0.00,74,weatherlink.com 1.10,2013-10-16 20:07:00,
2013-10-16 15:22:00,49.0,42.0,30.04,WNW,298,4.0,11.0,77,0.00,,,0.00,63,weatherlink.com 1.10,2013-10-16 20:22:00,
2013-10-16 15:37:00,49.2,43.0,30.03,West,265,8.0,8.0,78,0.00,,,0.00,118,weatherlink.com 1.10,2013-10-16 20:37:00,
2013-10-16 15:52:00,49.8,43.0,30.03,NNW,338,3.0,8.0,76,0.00,,,0.00,130,weatherlink.com 1.10,2013-10-16 20:52:00,
2013-10-16 16:08:00,49.6,42.0,30.03,West,273,3.0,10.0,76,0.00,,,0.00,46,weatherlink.com 1.10,2013-10-16 21:08:00,
2013-10-16 16:23:00,49.3,42.0,30.02,WSW,258,1.0,8.0,76,0.00,,,0.00,118,weatherlink.com 1.10,2013-10-16 21:23:00,
2013-10-16 16:38:00,49.6,42.0,30.02,West,267,6.0,6.0,76,0.00,,,0.00,60,weatherlink.com 1.10,2013-10-16 21:38:00,
2013-10-16 16:53:00,49.4,41.0,30.02,WNW,296,4.0,10.0,74,0.00,,,0.00,58,weatherlink.com 1.10,2013-10-16 21:53:00,
2013-10-16 17:08:00,49.3,41.0,30.01,West,266,4.0,10.0,74,0.00,,,0.00,63,weatherlink.com 1.10,2013-10-16 22:08:00,
2013-10-16 17:23:00,49.1,41.0,30.02,NW,311,5.0,8.0,74,0.00,,,0.00,60,weatherlink.com 1.10,2013-10-16 22:23:00,
2013-10-16 17:38:00,49.1,42.0,30.02,WSW,240,5.0,9.0,75,0.00,,,0.00,62,weatherlink.com 1.10,2013-10-16 22:38:00,
2013-10-16 17:53:00,49.4,41.0,30.02,NW,309,3.0,8.0,72,0.00,,,0.00,97,weatherlink.com 1.10,2013-10-16 22:53:00,
2013-10-16 18:08:00,49.2,41.0,30.02,West,262,3.0,7.0,73,0.00,,,0.00,33,weatherlink.com 1.10,2013-10-16 23:08:00,
2013-10-16 18:23:00,48.8,40.0,30.02,WSW,250,2.0,7.0,73,0.00,,,0.00,11,weatherlink.com 1.10,2013-10-16 23:23:00,
2013-10-16 18:38:00,47.8,40.0,30.02,WSW,239,1.0,4.0,74,0.00,,,0.00,0,weatherlink.com 1.10,2013-10-16 23:38:00,
2013-10-16 18:53:00,46.8,40.0,30.02,SW,231,1.0,2.0,76,0.00,,,0.00,0,weatherlink.com 1.10,2013-10-16 23:53:00,
2013-10-16 19:08:00,45.7,40.0,30.03,SW,231,1.0,2.0,79,0.00,,,0.00,0,weatherlink.com 1.10,2013-10-17 00:08:00,
2013-10-16 19:23:00,44.9,39.0,30.03,SW,215,1.0,3.0,81,0.00,,,0.00,0,weatherlink.com 1.10,2013-10-17 00:23:00,
2013-10-16 19:38:00,44.3,39.0,30.03,SW,219,0.0,4.0,82,0.00,,,0.00,0,weatherlink.com 1.10,2013-10-17 00:38:00,
2013-10-16 19:53:00,43.9,39.0,30.03,SW,217,0.0,2.0,83,0.00,,,0.00,0,weatherlink.com 1.10,2013-10-17 00:53:00,
2013-10-16 20:08:00,43.5,39.0,30.03,SW,217,1.0,2.0,84,0.00,,,0.00,0,weatherlink.com 1.10,2013-10-17 01:08:00,
2013-10-16 20:23:00,43.3,39.0,30.03,SW,217,0.0,2.0,85,0.00,,,0.00,0,weatherlink.com 1.10,2013-10-17 01:23:00,
2013-10-16 20:38:00,43.2,39.0,30.03,SSW,192,0.0,2.0,85,0.00,,,0.00,0,weatherlink.com 1.10,2013-10-17 01:38:00,
2013-10-16 20:53:00,42.9,39.0,30.02,SSW,192,1.0,2.0,85,0.00,,,0.00,0,weatherlink.com 1.10,2013-10-17 01:53:00,
2013-10-16 21:08:00,42.1,39.0,30.02,SSW,198,0.0,2.0,87,0.00,,,0.00,0,weatherlink.com 1.10,2013-10-17 02:08:00,
2013-10-16 21:23:00,42.1,38.0,30.02,South,177,1.0,3.0,86,0.00,,,0.00,0,weatherlink.com 1.10,2013-10-17 02:23:00,
2013-10-16 21:38:00,42.3,38.0,30.03,South,191,1.0,3.0,86,0.00,,,0.00,0,weatherlink.com 1.10,2013-10-17 02:38:00,
2013-10-16 21:53:00,42.3,38.0,30.02,South,180,1.0,4.0,86,0.00,,,0.00,0,weatherlink.com 1.10,2013-10-17 02:53:00,
2013-10-16 22:08:00,42.4,39.0,30.02,South,180,1.0,4.0,86,0.00,,,0.00,0,weatherlink.com 1.10,2013-10-17 03:08:00,
2013-10-16 22:23:00,42.5,38.0,30.02,SSW,205,1.0,3.0,85,0.00,,,0.00,0,weatherlink.com 1.10,2013-10-17 03:23:00,
2013-10-16 22:38:00,42.0,38.0,30.02,SSW,205,0.0,1.0,85,0.00,,,0.00,0,weatherlink.com 1.10,2013-10-17 03:38:00,
2013-10-16 22:53:00,41.8,38.0,30.02,SSW,196,1.0,3.0,87,0.00,,,0.00,0,weatherlink.com 1.10,2013-10-17 03:53:00,
2013-10-16 23:08:00,41.9,38.0,30.01,South,188,0.0,3.0,87,0.00,,,0.00,0,weatherlink.com 1.10,2013-10-17 04:08:00,
2013-10-16 23:23:00,41.8,39.0,30.01,South,188,1.0,1.0,89,0.00,,,0.00,0,weatherlink.com 1.10,2013-10-17 04:23:00,
2013-10-16 23:38:00,41.1,38.0,30.01,South,188,0.0,1.0,90,0.00,,,0.00,0,weatherlink.com 1.10,2013-10-17 04:38:00,
2013-10-16 23:53:00,40.9,39.0,30.01,South,188,2.0,2.0,91,0.00,,,0.00,0,weatherlink.com 1.10,2013-10-17 04:53:00,